sensor_id;sensor_type;location;lat;lon;timestamp;P1;durP1;ratioP1;P2;durP2;ratioP2
15661;SDS011;7931;52.274;10.470;2022-09-29T00:02:19;3.70;;;2.83;;
15661;SDS011;7931;52.274;10.470;2022-09-29T00:04:45;2.87;;;2.53;;
15661;SDS011;7931;52.274;10.470;2022-09-29T00:07:10;2.50;;;2.23;;
15661;SDS011;7931;52.274;10.470;2022-09-29T00:09:35;3.13;;;2.57;;
15661;SDS011;7931;52.274;10.470;2022-09-29T00:12:00;4.20;;;2.60;;
15661;SDS011;7931;52.274;10.470;2022-09-29T00:14:26;3.63;;;2.53;;
15661;SDS011;7931;52.274;10.470;2022-09-29T00:16:51;4.37;;;2.87;;
15661;SDS011;7931;52.274;10.470;2022-09-29T00:19:17;2.67;;;2.10;;
15661;SDS011;7931;52.274;10.470;2022-09-29T00:21:43;3.30;;;2.40;;
15661;SDS011;7931;52.274;10.470;2022-09-29T00:24:08;2.67;;;2.27;;
15661;SDS011;7931;52.274;10.470;2022-09-29T00:26:33;2.57;;;2.10;;
15661;SDS011;7931;52.274;10.470;2022-09-29T00:28:59;2.80;;;2.43;;
15661;SDS011;7931;52.274;10.470;2022-09-29T00:31:25;3.43;;;2.30;;
15661;SDS011;7931;52.274;10.470;2022-09-29T00:33:53;2.90;;;2.47;;
15661;SDS011;7931;52.274;10.470;2022-09-29T00:36:18;2.67;;;2.47;;
15661;SDS011;7931;52.274;10.470;2022-09-29T00:38:46;2.77;;;2.43;;
15661;SDS011;7931;52.274;10.470;2022-09-29T00:41:17;3.50;;;2.63;;
15661;SDS011;7931;52.274;10.470;2022-09-29T00:54:46;2.90;;;2.27;;
15661;SDS011;7931;52.274;10.470;2022-09-29T00:57:15;3.83;;;2.30;;
15661;SDS011;7931;52.274;10.470;2022-09-29T00:59:57;3.87;;;2.70;;
15661;SDS011;7931;52.274;10.470;2022-09-29T01:02:33;2.77;;;2.20;;
15661;SDS011;7931;52.274;10.470;2022-09-29T01:05:02;3.13;;;2.33;;
15661;SDS011;7931;52.274;10.470;2022-09-29T01:07:31;3.87;;;2.60;;
15661;SDS011;7931;52.274;10.470;2022-09-29T01:09:58;3.13;;;2.20;;
15661;SDS011;7931;52.274;10.470;2022-09-29T01:12:23;2.70;;;2.13;;
15661;SDS011;7931;52.274;10.470;2022-09-29T01:14:49;3.23;;;2.70;;
15661;SDS011;7931;52.274;10.470;2022-09-29T01:17:17;4.17;;;2.17;;
15661;SDS011;7931;52.274;10.470;2022-09-29T01:22:25;2.73;;;2.13;;
15661;SDS011;7931;52.274;10.470;2022-09-29T01:28:29;3.20;;;2.70;;
15661;SDS011;7931;52.274;10.470;2022-09-29T01:34:06;3.30;;;2.63;;
15661;SDS011;7931;52.274;10.470;2022-09-29T01:36:50;3.13;;;2.70;;
15661;SDS011;7931;52.274;10.470;2022-09-29T01:42:00;4.80;;;2.77;;
15661;SDS011;7931;52.274;10.470;2022-09-29T01:47:38;3.10;;;2.50;;
15661;SDS011;7931;52.274;10.470;2022-09-29T01:50:08;3.20;;;2.43;;
15661;SDS011;7931;52.274;10.470;2022-09-29T01:52:41;2.73;;;2.53;;
15661;SDS011;7931;52.274;10.470;2022-09-29T01:55:11;5.03;;;2.67;;
15661;SDS011;7931;52.274;10.470;2022-09-29T01:57:45;3.57;;;2.90;;
15661;SDS011;7931;52.274;10.470;2022-09-29T02:00:19;3.90;;;3.10;;
15661;SDS011;7931;52.274;10.470;2022-09-29T02:03:07;2.97;;;2.70;;
15661;SDS011;7931;52.274;10.470;2022-09-29T02:05:48;5.27;;;2.70;;
15661;SDS011;7931;52.274;10.470;2022-09-29T02:08:30;3.53;;;3.00;;
15661;SDS011;7931;52.274;10.470;2022-09-29T02:11:04;3.33;;;2.67;;
15661;SDS011;7931;52.274;10.470;2022-09-29T02:13:36;3.80;;;2.50;;
15661;SDS011;7931;52.274;10.470;2022-09-29T02:16:07;3.50;;;2.63;;
15661;SDS011;7931;52.274;10.470;2022-09-29T02:18:54;2.83;;;2.57;;
15661;SDS011;7931;52.274;10.470;2022-09-29T02:21:25;3.03;;;2.73;;
15661;SDS011;7931;52.274;10.470;2022-09-29T02:23:52;3.70;;;2.93;;
15661;SDS011;7931;52.274;10.470;2022-09-29T02:26:18;2.93;;;2.33;;
15661;SDS011;7931;52.274;10.470;2022-09-29T02:28:44;2.40;;;2.20;;
15661;SDS011;7931;52.274;10.470;2022-09-29T02:31:10;2.90;;;2.60;;
15661;SDS011;7931;52.274;10.470;2022-09-29T02:33:35;4.03;;;2.83;;
15661;SDS011;7931;52.274;10.470;2022-09-29T02:39:08;3.93;;;2.70;;
15661;SDS011;7931;52.274;10.470;2022-09-29T02:48:43;3.17;;;2.83;;
15661;SDS011;7931;52.274;10.470;2022-09-29T02:51:49;3.37;;;2.67;;
15661;SDS011;7931;52.274;10.470;2022-09-29T02:54:15;3.30;;;2.33;;
15661;SDS011;7931;52.274;10.470;2022-09-29T03:00:00;5.23;;;2.60;;
15661;SDS011;7931;52.274;10.470;2022-09-29T03:02:30;2.50;;;2.10;;
15661;SDS011;7931;52.274;10.470;2022-09-29T03:04:56;3.13;;;2.67;;
15661;SDS011;7931;52.274;10.470;2022-09-29T03:07:21;3.43;;;2.80;;
15661;SDS011;7931;52.274;10.470;2022-09-29T03:09:46;2.90;;;2.40;;
15661;SDS011;7931;52.274;10.470;2022-09-29T03:12:12;3.77;;;3.07;;
15661;SDS011;7931;52.274;10.470;2022-09-29T03:14:37;3.50;;;2.53;;
15661;SDS011;7931;52.274;10.470;2022-09-29T03:17:02;2.73;;;2.37;;
15661;SDS011;7931;52.274;10.470;2022-09-29T03:19:28;7.23;;;3.10;;
15661;SDS011;7931;52.274;10.470;2022-09-29T03:21:53;4.13;;;2.83;;
15661;SDS011;7931;52.274;10.470;2022-09-29T03:24:18;5.40;;;2.80;;
15661;SDS011;7931;52.274;10.470;2022-09-29T03:26:43;2.67;;;2.33;;
15661;SDS011;7931;52.274;10.470;2022-09-29T03:29:09;3.30;;;2.70;;
15661;SDS011;7931;52.274;10.470;2022-09-29T03:31:34;3.77;;;2.77;;
15661;SDS011;7931;52.274;10.470;2022-09-29T03:33:59;2.60;;;2.20;;
15661;SDS011;7931;52.274;10.470;2022-09-29T03:36:25;3.37;;;2.63;;
15661;SDS011;7931;52.274;10.470;2022-09-29T03:38:51;2.80;;;2.50;;
15661;SDS011;7931;52.274;10.470;2022-09-29T03:41:16;4.63;;;3.00;;
15661;SDS011;7931;52.274;10.470;2022-09-29T03:43:41;3.27;;;2.17;;
15661;SDS011;7931;52.274;10.470;2022-09-29T03:46:07;4.53;;;2.80;;
15661;SDS011;7931;52.274;10.470;2022-09-29T03:48:32;5.27;;;2.60;;
15661;SDS011;7931;52.274;10.470;2022-09-29T03:50:59;4.20;;;2.83;;
15661;SDS011;7931;52.274;10.470;2022-09-29T03:53:25;4.43;;;2.67;;
15661;SDS011;7931;52.274;10.470;2022-09-29T03:55:50;4.43;;;2.83;;
15661;SDS011;7931;52.274;10.470;2022-09-29T03:58:16;3.83;;;2.53;;
15661;SDS011;7931;52.274;10.470;2022-09-29T04:00:42;4.30;;;2.57;;
15661;SDS011;7931;52.274;10.470;2022-09-29T04:03:07;3.40;;;2.60;;
15661;SDS011;7931;52.274;10.470;2022-09-29T04:05:33;4.17;;;2.97;;
15661;SDS011;7931;52.274;10.470;2022-09-29T04:08:03;3.17;;;2.77;;
15661;SDS011;7931;52.274;10.470;2022-09-29T04:10:29;4.77;;;2.37;;
15661;SDS011;7931;52.274;10.470;2022-09-29T04:12:54;3.57;;;2.73;;
15661;SDS011;7931;52.274;10.470;2022-09-29T04:15:19;3.47;;;2.43;;
15661;SDS011;7931;52.274;10.470;2022-09-29T04:17:44;3.13;;;2.37;;
15661;SDS011;7931;52.274;10.470;2022-09-29T04:20:10;4.53;;;3.20;;
15661;SDS011;7931;52.274;10.470;2022-09-29T04:22:35;3.77;;;2.47;;
15661;SDS011;7931;52.274;10.470;2022-09-29T04:25:00;5.57;;;2.97;;
15661;SDS011;7931;52.274;10.470;2022-09-29T04:27:26;4.00;;;2.90;;
15661;SDS011;7931;52.274;10.470;2022-09-29T04:29:51;4.17;;;2.77;;
15661;SDS011;7931;52.274;10.470;2022-09-29T04:32:16;4.30;;;2.60;;
15661;SDS011;7931;52.274;10.470;2022-09-29T04:34:42;4.80;;;3.37;;
15661;SDS011;7931;52.274;10.470;2022-09-29T04:37:08;3.53;;;3.03;;
15661;SDS011;7931;52.274;10.470;2022-09-29T04:39:36;3.40;;;3.03;;
15661;SDS011;7931;52.274;10.470;2022-09-29T04:42:02;5.47;;;2.60;;
15661;SDS011;7931;52.274;10.470;2022-09-29T04:44:27;3.83;;;3.00;;
15661;SDS011;7931;52.274;10.470;2022-09-29T04:46:52;2.77;;;2.20;;
15661;SDS011;7931;52.274;10.470;2022-09-29T04:49:18;3.47;;;2.70;;
15661;SDS011;7931;52.274;10.470;2022-09-29T04:51:43;4.33;;;3.00;;
15661;SDS011;7931;52.274;10.470;2022-09-29T04:54:08;4.40;;;2.83;;
15661;SDS011;7931;52.274;10.470;2022-09-29T04:56:34;7.70;;;5.50;;
15661;SDS011;7931;52.274;10.470;2022-09-29T04:58:59;9.53;;;6.90;;
15661;SDS011;7931;52.274;10.470;2022-09-29T05:01:24;9.03;;;7.10;;
15661;SDS011;7931;52.274;10.470;2022-09-29T05:03:50;9.20;;;6.83;;
15661;SDS011;7931;52.274;10.470;2022-09-29T05:06:15;9.30;;;6.47;;
15661;SDS011;7931;52.274;10.470;2022-09-29T05:08:41;8.30;;;5.63;;
15661;SDS011;7931;52.274;10.470;2022-09-29T05:11:07;7.60;;;5.43;;
15661;SDS011;7931;52.274;10.470;2022-09-29T05:13:33;6.17;;;4.57;;
15661;SDS011;7931;52.274;10.470;2022-09-29T05:15:59;5.43;;;4.03;;
15661;SDS011;7931;52.274;10.470;2022-09-29T05:18:25;5.00;;;3.60;;
15661;SDS011;7931;52.274;10.470;2022-09-29T05:20:50;5.37;;;3.83;;
15661;SDS011;7931;52.274;10.470;2022-09-29T05:23:15;5.37;;;4.20;;
15661;SDS011;7931;52.274;10.470;2022-09-29T05:25:40;4.13;;;3.63;;
15661;SDS011;7931;52.274;10.470;2022-09-29T05:28:07;4.93;;;3.70;;
15661;SDS011;7931;52.274;10.470;2022-09-29T05:30:33;4.33;;;3.17;;
15661;SDS011;7931;52.274;10.470;2022-09-29T05:32:59;5.93;;;4.00;;
15661;SDS011;7931;52.274;10.470;2022-09-29T05:35:24;5.10;;;3.40;;
15661;SDS011;7931;52.274;10.470;2022-09-29T05:37:49;4.87;;;3.87;;
15661;SDS011;7931;52.274;10.470;2022-09-29T05:40:15;5.07;;;3.53;;
15661;SDS011;7931;52.274;10.470;2022-09-29T05:42:41;7.40;;;3.50;;
15661;SDS011;7931;52.274;10.470;2022-09-29T05:45:06;5.73;;;3.50;;
15661;SDS011;7931;52.274;10.470;2022-09-29T05:47:34;5.80;;;3.37;;
15661;SDS011;7931;52.274;10.470;2022-09-29T05:49:59;6.30;;;3.17;;
15661;SDS011;7931;52.274;10.470;2022-09-29T05:52:25;7.33;;;3.70;;
15661;SDS011;7931;52.274;10.470;2022-09-29T05:54:50;5.90;;;3.77;;
15661;SDS011;7931;52.274;10.470;2022-09-29T05:57:15;5.80;;;3.67;;
15661;SDS011;7931;52.274;10.470;2022-09-29T05:59:42;5.40;;;3.60;;
15661;SDS011;7931;52.274;10.470;2022-09-29T06:02:07;4.93;;;3.83;;
15661;SDS011;7931;52.274;10.470;2022-09-29T06:04:33;4.93;;;4.10;;
15661;SDS011;7931;52.274;10.470;2022-09-29T06:06:59;6.33;;;4.10;;
15661;SDS011;7931;52.274;10.470;2022-09-29T06:09:24;5.23;;;3.80;;
15661;SDS011;7931;52.274;10.470;2022-09-29T06:11:50;5.43;;;4.10;;
15661;SDS011;7931;52.274;10.470;2022-09-29T06:14:15;10.27;;;5.27;;
15661;SDS011;7931;52.274;10.470;2022-09-29T06:16:40;10.53;;;5.70;;
15661;SDS011;7931;52.274;10.470;2022-09-29T06:19:05;14.67;;;6.37;;
15661;SDS011;7931;52.274;10.470;2022-09-29T06:21:31;8.83;;;5.97;;
15661;SDS011;7931;52.274;10.470;2022-09-29T06:23:58;12.20;;;7.33;;
15661;SDS011;7931;52.274;10.470;2022-09-29T06:26:24;13.07;;;8.27;;
15661;SDS011;7931;52.274;10.470;2022-09-29T06:28:51;11.77;;;8.00;;
15661;SDS011;7931;52.274;10.470;2022-09-29T06:31:18;10.43;;;7.67;;
15661;SDS011;7931;52.274;10.470;2022-09-29T06:33:44;8.70;;;6.77;;
15661;SDS011;7931;52.274;10.470;2022-09-29T06:36:11;11.07;;;7.93;;
15661;SDS011;7931;52.274;10.470;2022-09-29T06:39:07;10.83;;;7.73;;
15661;SDS011;7931;52.274;10.470;2022-09-29T06:41:34;12.03;;;8.53;;
15661;SDS011;7931;52.274;10.470;2022-09-29T06:43:59;12.30;;;8.63;;
15661;SDS011;7931;52.274;10.470;2022-09-29T06:46:25;16.60;;;9.00;;
15661;SDS011;7931;52.274;10.470;2022-09-29T06:48:53;15.03;;;8.30;;
15661;SDS011;7931;52.274;10.470;2022-09-29T06:51:20;15.00;;;9.40;;
15661;SDS011;7931;52.274;10.470;2022-09-29T06:53:48;16.37;;;10.43;;
15661;SDS011;7931;52.274;10.470;2022-09-29T06:56:14;19.03;;;10.60;;
15661;SDS011;7931;52.274;10.470;2022-09-29T06:58:40;16.53;;;10.57;;
15661;SDS011;7931;52.274;10.470;2022-09-29T07:01:05;15.20;;;10.07;;
15661;SDS011;7931;52.274;10.470;2022-09-29T07:03:31;18.17;;;11.20;;
15661;SDS011;7931;52.274;10.470;2022-09-29T07:06:00;21.40;;;11.13;;
15661;SDS011;7931;52.274;10.470;2022-09-29T07:08:27;21.53;;;13.30;;
15661;SDS011;7931;52.274;10.470;2022-09-29T07:10:52;22.53;;;13.13;;
15661;SDS011;7931;52.274;10.470;2022-09-29T07:13:18;26.13;;;14.60;;
15661;SDS011;7931;52.274;10.470;2022-09-29T07:15:44;24.90;;;14.57;;
15661;SDS011;7931;52.274;10.470;2022-09-29T07:18:09;22.70;;;13.87;;
15661;SDS011;7931;52.274;10.470;2022-09-29T07:20:34;22.37;;;12.60;;
15661;SDS011;7931;52.274;10.470;2022-09-29T07:22:59;25.00;;;14.50;;
15661;SDS011;7931;52.274;10.470;2022-09-29T07:25:25;21.70;;;13.47;;
15661;SDS011;7931;52.274;10.470;2022-09-29T07:27:50;18.43;;;13.13;;
15661;SDS011;7931;52.274;10.470;2022-09-29T07:30:16;20.13;;;13.80;;
15661;SDS011;7931;52.274;10.470;2022-09-29T07:32:42;22.07;;;14.40;;
15661;SDS011;7931;52.274;10.470;2022-09-29T07:35:08;22.00;;;14.60;;
15661;SDS011;7931;52.274;10.470;2022-09-29T07:37:33;19.87;;;13.70;;
15661;SDS011;7931;52.274;10.470;2022-09-29T07:39:59;22.23;;;14.77;;
15661;SDS011;7931;52.274;10.470;2022-09-29T07:42:24;22.03;;;13.33;;
15661;SDS011;7931;52.274;10.470;2022-09-29T07:44:52;21.97;;;13.73;;
15661;SDS011;7931;52.274;10.470;2022-09-29T07:47:18;18.23;;;13.13;;
15661;SDS011;7931;52.274;10.470;2022-09-29T07:49:43;20.87;;;13.13;;
15661;SDS011;7931;52.274;10.470;2022-09-29T07:52:09;20.07;;;12.23;;
15661;SDS011;7931;52.274;10.470;2022-09-29T07:54:34;18.27;;;12.90;;
15661;SDS011;7931;52.274;10.470;2022-09-29T07:56:59;20.53;;;12.77;;
15661;SDS011;7931;52.274;10.470;2022-09-29T07:59:27;21.37;;;14.00;;
15661;SDS011;7931;52.274;10.470;2022-09-29T08:01:53;16.10;;;11.73;;
15661;SDS011;7931;52.274;10.470;2022-09-29T08:04:18;18.30;;;12.93;;
15661;SDS011;7931;52.274;10.470;2022-09-29T08:06:44;20.33;;;13.13;;
15661;SDS011;7931;52.274;10.470;2022-09-29T08:09:10;17.97;;;12.40;;
15661;SDS011;7931;52.274;10.470;2022-09-29T08:11:37;18.80;;;12.20;;
15661;SDS011;7931;52.274;10.470;2022-09-29T08:14:03;21.03;;;11.93;;
15661;SDS011;7931;52.274;10.470;2022-09-29T08:16:28;17.23;;;12.13;;
15661;SDS011;7931;52.274;10.470;2022-09-29T08:18:54;16.97;;;11.70;;
15661;SDS011;7931;52.274;10.470;2022-09-29T08:21:19;14.87;;;11.30;;
15661;SDS011;7931;52.274;10.470;2022-09-29T08:23:44;12.70;;;10.20;;
15661;SDS011;7931;52.274;10.470;2022-09-29T08:26:14;14.60;;;11.03;;
15661;SDS011;7931;52.274;10.470;2022-09-29T08:28:41;14.27;;;10.57;;
15661;SDS011;7931;52.274;10.470;2022-09-29T08:31:08;15.73;;;11.47;;
15661;SDS011;7931;52.274;10.470;2022-09-29T08:33:36;15.90;;;9.93;;
15661;SDS011;7931;52.274;10.470;2022-09-29T08:36:02;12.00;;;9.13;;
15661;SDS011;7931;52.274;10.470;2022-09-29T08:38:30;11.47;;;9.23;;
15661;SDS011;7931;52.274;10.470;2022-09-29T08:40:56;13.00;;;9.60;;
15661;SDS011;7931;52.274;10.470;2022-09-29T08:43:28;12.27;;;9.27;;
15661;SDS011;7931;52.274;10.470;2022-09-29T08:46:00;12.77;;;9.40;;
15661;SDS011;7931;52.274;10.470;2022-09-29T08:48:33;10.60;;;9.20;;
15661;SDS011;7931;52.274;10.470;2022-09-29T08:51:03;13.20;;;9.73;;
15661;SDS011;7931;52.274;10.470;2022-09-29T08:53:34;14.07;;;9.77;;
15661;SDS011;7931;52.274;10.470;2022-09-29T08:56:08;12.70;;;8.90;;
15661;SDS011;7931;52.274;10.470;2022-09-29T08:58:39;12.57;;;9.17;;
15661;SDS011;7931;52.274;10.470;2022-09-29T09:04:05;11.80;;;9.30;;
15661;SDS011;7931;52.274;10.470;2022-09-29T09:20:21;10.40;;;7.80;;
15661;SDS011;7931;52.274;10.470;2022-09-29T09:22:56;11.30;;;7.57;;
15661;SDS011;7931;52.274;10.470;2022-09-29T09:28:16;8.23;;;7.17;;
15661;SDS011;7931;52.274;10.470;2022-09-29T09:30:49;9.63;;;6.83;;
15661;SDS011;7931;52.274;10.470;2022-09-29T09:34:06;7.97;;;7.18;;
15661;SDS011;7931;52.274;10.470;2022-09-29T09:38:44;7.63;;;6.57;;
15661;SDS011;7931;52.274;10.470;2022-09-29T09:41:15;6.85;;;5.78;;
15661;SDS011;7931;52.274;10.470;2022-09-29T09:43:55;7.53;;;5.63;;
15661;SDS011;7931;52.274;10.470;2022-09-29T09:46:28;7.70;;;5.22;;
15661;SDS011;7931;52.274;10.470;2022-09-29T09:49:12;7.72;;;6.05;;
15661;SDS011;7931;52.274;10.470;2022-09-29T09:54:42;5.28;;;4.50;;
15661;SDS011;7931;52.274;10.470;2022-09-29T10:02:46;4.90;;;3.85;;
15661;SDS011;7931;52.274;10.470;2022-09-29T10:05:21;4.78;;;4.25;;
15661;SDS011;7931;52.274;10.470;2022-09-29T10:07:48;5.50;;;4.63;;
15661;SDS011;7931;52.274;10.470;2022-09-29T10:10:16;4.95;;;4.40;;
15661;SDS011;7931;52.274;10.470;2022-09-29T10:12:43;6.53;;;4.97;;
15661;SDS011;7931;52.274;10.470;2022-09-29T10:15:23;4.53;;;4.10;;
15661;SDS011;7931;52.274;10.470;2022-09-29T10:17:58;6.38;;;4.13;;
15661;SDS011;7931;52.274;10.470;2022-09-29T10:20:31;4.50;;;3.75;;
15661;SDS011;7931;52.274;10.470;2022-09-29T10:25:57;3.95;;;3.40;;
15661;SDS011;7931;52.274;10.470;2022-09-29T10:28:27;7.50;;;4.57;;
15661;SDS011;7931;52.274;10.470;2022-09-29T10:31:00;6.53;;;4.72;;
15661;SDS011;7931;52.274;10.470;2022-09-29T10:33:25;4.93;;;3.83;;
15661;SDS011;7931;52.274;10.470;2022-09-29T10:36:02;5.65;;;4.05;;
15661;SDS011;7931;52.274;10.470;2022-09-29T10:38:32;7.28;;;4.80;;
15661;SDS011;7931;52.274;10.470;2022-09-29T10:41:02;4.85;;;4.35;;
15661;SDS011;7931;52.274;10.470;2022-09-29T10:46:08;6.05;;;4.57;;
15661;SDS011;7931;52.274;10.470;2022-09-29T10:49:12;5.68;;;5.05;;
15661;SDS011;7931;52.274;10.470;2022-09-29T10:52:03;5.95;;;5.35;;
15661;SDS011;7931;52.274;10.470;2022-09-29T10:54:33;6.50;;;4.82;;
15661;SDS011;7931;52.274;10.470;2022-09-29T10:57:11;4.97;;;4.47;;
15661;SDS011;7931;52.274;10.470;2022-09-29T10:59:48;7.45;;;4.03;;
15661;SDS011;7931;52.274;10.470;2022-09-29T11:05:00;3.83;;;3.40;;
15661;SDS011;7931;52.274;10.470;2022-09-29T11:07:27;4.05;;;3.58;;
15661;SDS011;7931;52.274;10.470;2022-09-29T11:09:55;3.95;;;3.58;;
15661;SDS011;7931;52.274;10.470;2022-09-29T11:12:25;7.97;;;3.90;;
15661;SDS011;7931;52.274;10.470;2022-09-29T11:14:53;3.95;;;3.30;;
15661;SDS011;7931;52.274;10.470;2022-09-29T11:19:49;4.10;;;3.70;;
15661;SDS011;7931;52.274;10.470;2022-09-29T11:27:53;3.85;;;3.33;;
15661;SDS011;7931;52.274;10.470;2022-09-29T11:33:37;4.55;;;3.42;;
15661;SDS011;7931;52.274;10.470;2022-09-29T11:36:29;4.55;;;4.05;;
15661;SDS011;7931;52.274;10.470;2022-09-29T11:41:57;3.88;;;3.47;;
15661;SDS011;7931;52.274;10.470;2022-09-29T11:50:20;3.92;;;2.38;;
15661;SDS011;7931;52.274;10.470;2022-09-29T11:53:04;3.30;;;2.22;;
15661;SDS011;7931;52.274;10.470;2022-09-29T11:58:41;2.60;;;2.40;;
15661;SDS011;7931;52.274;10.470;2022-09-29T12:04:29;2.70;;;2.50;;
15661;SDS011;7931;52.274;10.470;2022-09-29T12:09:57;9.25;;;2.60;;
15661;SDS011;7931;52.274;10.470;2022-09-29T12:12:57;3.25;;;2.30;;
15661;SDS011;7931;52.274;10.470;2022-09-29T12:15:26;3.25;;;2.55;;
15661;SDS011;7931;52.274;10.470;2022-09-29T12:18:01;3.50;;;2.40;;
15661;SDS011;7931;52.274;10.470;2022-09-29T12:20:34;2.97;;;1.95;;
15661;SDS011;7931;52.274;10.470;2022-09-29T12:23:11;1.98;;;1.75;;
15661;SDS011;7931;52.274;10.470;2022-09-29T12:25:41;2.65;;;2.10;;
15661;SDS011;7931;52.274;10.470;2022-09-29T12:28:20;2.63;;;2.30;;
15661;SDS011;7931;52.274;10.470;2022-09-29T12:30:59;3.42;;;2.15;;
15661;SDS011;7931;52.274;10.470;2022-09-29T12:33:37;2.10;;;1.90;;
15661;SDS011;7931;52.274;10.470;2022-09-29T12:45:17;3.58;;;2.65;;
15661;SDS011;7931;52.274;10.470;2022-09-29T12:47:55;3.35;;;2.60;;
15661;SDS011;7931;52.274;10.470;2022-09-29T12:50:35;2.97;;;2.58;;
15661;SDS011;7931;52.274;10.470;2022-09-29T12:53:13;2.47;;;2.28;;
15661;SDS011;7931;52.274;10.470;2022-09-29T12:55:50;2.92;;;2.35;;
15661;SDS011;7931;52.274;10.470;2022-09-29T13:01:27;4.13;;;2.22;;
15661;SDS011;7931;52.274;10.470;2022-09-29T13:12:57;3.15;;;2.38;;
15661;SDS011;7931;52.274;10.470;2022-09-29T13:15:37;3.55;;;2.42;;
15661;SDS011;7931;52.274;10.470;2022-09-29T13:21:28;2.63;;;2.42;;
15661;SDS011;7931;52.274;10.470;2022-09-29T13:27:12;3.17;;;2.95;;
15661;SDS011;7931;52.274;10.470;2022-09-29T13:29:44;5.40;;;3.25;;
15661;SDS011;7931;52.274;10.470;2022-09-29T13:32:13;2.78;;;2.58;;
15661;SDS011;7931;52.274;10.470;2022-09-29T13:34:44;3.28;;;2.60;;
15661;SDS011;7931;52.274;10.470;2022-09-29T13:37:14;3.33;;;2.60;;
15661;SDS011;7931;52.274;10.470;2022-09-29T13:39:43;2.90;;;2.55;;
15661;SDS011;7931;52.274;10.470;2022-09-29T13:45:12;1.80;;;1.70;;
15661;SDS011;7931;52.274;10.470;2022-09-29T13:47:45;4.43;;;3.67;;
15661;SDS011;7931;52.274;10.470;2022-09-29T13:50:53;8.98;;;6.68;;
15661;SDS011;7931;52.274;10.470;2022-09-29T13:56:08;2.35;;;1.98;;
15661;SDS011;7931;52.274;10.470;2022-09-29T13:58:36;2.88;;;1.90;;
15661;SDS011;7931;52.274;10.470;2022-09-29T14:01:08;2.13;;;1.80;;
15661;SDS011;7931;52.274;10.470;2022-09-29T14:06:21;1.85;;;1.75;;
15661;SDS011;7931;52.274;10.470;2022-09-29T14:08:49;4.68;;;1.95;;
15661;SDS011;7931;52.274;10.470;2022-09-29T14:11:20;1.70;;;1.60;;
15661;SDS011;7931;52.274;10.470;2022-09-29T14:14:34;1.73;;;1.38;;
15661;SDS011;7931;52.274;10.470;2022-09-29T14:17:16;1.65;;;1.30;;
15661;SDS011;7931;52.274;10.470;2022-09-29T14:27:33;2.03;;;1.83;;
15661;SDS011;7931;52.274;10.470;2022-09-29T14:32:36;3.05;;;2.58;;
15661;SDS011;7931;52.274;10.470;2022-09-29T14:35:13;2.08;;;1.88;;
15661;SDS011;7931;52.274;10.470;2022-09-29T14:37:42;3.58;;;2.03;;
15661;SDS011;7931;52.274;10.470;2022-09-29T14:40:09;2.70;;;1.85;;
15661;SDS011;7931;52.274;10.470;2022-09-29T14:43:01;2.88;;;1.73;;
15661;SDS011;7931;52.274;10.470;2022-09-29T14:45:27;2.88;;;1.90;;
15661;SDS011;7931;52.274;10.470;2022-09-29T14:48:15;1.80;;;1.65;;
15661;SDS011;7931;52.274;10.470;2022-09-29T14:51:13;2.92;;;2.13;;
15661;SDS011;7931;52.274;10.470;2022-09-29T14:54:21;2.65;;;2.08;;
15661;SDS011;7931;52.274;10.470;2022-09-29T15:04:38;2.30;;;2.10;;
15661;SDS011;7931;52.274;10.470;2022-09-29T15:07:04;2.05;;;1.65;;
15661;SDS011;7931;52.274;10.470;2022-09-29T15:09:35;3.25;;;1.88;;
15661;SDS011;7931;52.274;10.470;2022-09-29T15:12:01;2.63;;;2.10;;
15661;SDS011;7931;52.274;10.470;2022-09-29T15:27:54;2.03;;;1.90;;
15661;SDS011;7931;52.274;10.470;2022-09-29T15:30:23;1.92;;;1.60;;
15661;SDS011;7931;52.274;10.470;2022-09-29T15:32:51;2.85;;;1.80;;
15661;SDS011;7931;52.274;10.470;2022-09-29T15:35:22;1.73;;;1.63;;
15661;SDS011;7931;52.274;10.470;2022-09-29T15:40:15;1.92;;;1.75;;
15661;SDS011;7931;52.274;10.470;2022-09-29T15:42:41;3.47;;;2.03;;
15661;SDS011;7931;52.274;10.470;2022-09-29T15:45:08;1.80;;;1.60;;
15661;SDS011;7931;52.274;10.470;2022-09-29T15:47:41;2.38;;;1.45;;
15661;SDS011;7931;52.274;10.470;2022-09-29T15:50:17;3.28;;;1.45;;
15661;SDS011;7931;52.274;10.470;2022-09-29T15:52:46;2.70;;;1.42;;
15661;SDS011;7931;52.274;10.470;2022-09-29T15:55:13;6.93;;;3.05;;
15661;SDS011;7931;52.274;10.470;2022-09-29T15:57:42;4.35;;;1.90;;
15661;SDS011;7931;52.274;10.470;2022-09-29T16:02:47;4.03;;;1.70;;
15661;SDS011;7931;52.274;10.470;2022-09-29T16:05:17;2.60;;;1.50;;
15661;SDS011;7931;52.274;10.470;2022-09-29T16:07:55;1.65;;;1.40;;
15661;SDS011;7931;52.274;10.470;2022-09-29T16:10:26;1.75;;;1.23;;
15661;SDS011;7931;52.274;10.470;2022-09-29T16:12:55;2.78;;;1.40;;
15661;SDS011;7931;52.274;10.470;2022-09-29T16:17:59;2.15;;;1.30;;
15661;SDS011;7931;52.274;10.470;2022-09-29T16:20:44;1.70;;;0.85;;
15661;SDS011;7931;52.274;10.470;2022-09-29T16:23:20;1.67;;;1.40;;
15661;SDS011;7931;52.274;10.470;2022-09-29T16:28:30;1.20;;;0.90;;
15661;SDS011;7931;52.274;10.470;2022-09-29T16:31:09;1.45;;;1.25;;
15661;SDS011;7931;52.274;10.470;2022-09-29T16:33:43;1.58;;;1.10;;
15661;SDS011;7931;52.274;10.470;2022-09-29T16:36:16;1.58;;;1.08;;
15661;SDS011;7931;52.274;10.470;2022-09-29T16:38:45;2.55;;;1.00;;
15661;SDS011;7931;52.274;10.470;2022-09-29T16:46:31;1.17;;;1.00;;
15661;SDS011;7931;52.274;10.470;2022-09-29T16:48:57;1.10;;;0.85;;
15661;SDS011;7931;52.274;10.470;2022-09-29T16:51:23;1.90;;;1.13;;
15661;SDS011;7931;52.274;10.470;2022-09-29T16:53:49;1.60;;;1.10;;
15661;SDS011;7931;52.274;10.470;2022-09-29T16:56:28;0.82;;;0.80;;
15661;SDS011;7931;52.274;10.470;2022-09-29T16:59:16;1.77;;;1.05;;
15661;SDS011;7931;52.274;10.470;2022-09-29T17:01:43;1.67;;;0.95;;
15661;SDS011;7931;52.274;10.470;2022-09-29T17:04:10;0.90;;;0.90;;
15661;SDS011;7931;52.274;10.470;2022-09-29T17:06:36;1.45;;;0.90;;
15661;SDS011;7931;52.274;10.470;2022-09-29T17:09:02;1.90;;;0.82;;
15661;SDS011;7931;52.274;10.470;2022-09-29T17:11:29;1.23;;;0.95;;
15661;SDS011;7931;52.274;10.470;2022-09-29T17:13:54;1.15;;;0.90;;
15661;SDS011;7931;52.274;10.470;2022-09-29T17:16:21;1.63;;;1.00;;
15661;SDS011;7931;52.274;10.470;2022-09-29T17:18:48;1.52;;;0.70;;
15661;SDS011;7931;52.274;10.470;2022-09-29T17:21:14;0.70;;;0.70;;
15661;SDS011;7931;52.274;10.470;2022-09-29T17:23:40;3.97;;;0.80;;
15661;SDS011;7931;52.274;10.470;2022-09-29T17:26:07;3.40;;;1.40;;
15661;SDS011;7931;52.274;10.470;2022-09-29T17:29:05;2.13;;;1.27;;
15661;SDS011;7931;52.274;10.470;2022-09-29T17:31:30;2.75;;;1.50;;
15661;SDS011;7931;52.274;10.470;2022-09-29T17:33:55;2.55;;;1.25;;
15661;SDS011;7931;52.274;10.470;2022-09-29T17:36:21;2.90;;;1.30;;
15661;SDS011;7931;52.274;10.470;2022-09-29T17:38:48;2.38;;;1.40;;
15661;SDS011;7931;52.274;10.470;2022-09-29T17:41:15;1.60;;;1.23;;
15661;SDS011;7931;52.274;10.470;2022-09-29T17:43:42;1.60;;;1.50;;
15661;SDS011;7931;52.274;10.470;2022-09-29T17:46:10;1.77;;;1.50;;
15661;SDS011;7931;52.274;10.470;2022-09-29T17:48:37;1.60;;;1.37;;
15661;SDS011;7931;52.274;10.470;2022-09-29T17:51:02;2.97;;;1.83;;
15661;SDS011;7931;52.274;10.470;2022-09-29T17:53:28;2.77;;;2.30;;
15661;SDS011;7931;52.274;10.470;2022-09-29T17:55:54;3.50;;;2.97;;
15661;SDS011;7931;52.274;10.470;2022-09-29T17:58:21;4.13;;;3.40;;
15661;SDS011;7931;52.274;10.470;2022-09-29T18:00:49;5.00;;;4.13;;
15661;SDS011;7931;52.274;10.470;2022-09-29T18:03:16;5.20;;;4.70;;
15661;SDS011;7931;52.274;10.470;2022-09-29T18:05:43;5.37;;;4.87;;
15661;SDS011;7931;52.274;10.470;2022-09-29T18:08:15;5.43;;;4.87;;
15661;SDS011;7931;52.274;10.470;2022-09-29T18:10:49;5.57;;;5.00;;